createdAt,value
2018-08-06T00:00:23.409Z,22.01
2018-08-06T00:01:03.827Z,21.9
2018-08-06T00:03:16.445Z,22.09
2018-08-06T00:03:56.754Z,22.01
2018-08-06T00:04:37.175Z,22.06
2018-08-06T00:05:17.598Z,21.96
2018-08-06T00:05:58.019Z,22.01
2018-08-06T00:06:38.403Z,22.01
2018-08-06T00:07:18.807Z,21.99
2018-08-06T00:07:59.250Z,22.02
2018-08-06T00:08:39.637Z,21.99
2018-08-06T00:09:20.060Z,21.99
2018-08-06T00:10:00.418Z,22.02
2018-08-06T00:11:52.780Z,21.99
2018-08-06T00:12:33.145Z,21.94
2018-08-06T00:13:13.562Z,22.02
2018-08-06T00:13:53.965Z,21.96
2018-08-06T00:14:34.362Z,22.02
2018-08-06T00:15:14.826Z,22.01
2018-08-06T00:15:55.243Z,21.93
2018-08-06T00:16:35.676Z,22.06
2018-08-06T00:17:16.023Z,22.09
2018-08-06T00:17:56.440Z,22.04
2018-08-06T00:18:36.891Z,22.11
2018-08-06T00:19:17.324Z,22.09
2018-08-06T00:19:57.761Z,22.06
2018-08-06T00:21:55.277Z,22.12
2018-08-06T00:22:35.757Z,22.06
2018-08-06T00:23:16.176Z,22.12
2018-08-06T00:23:56.541Z,22.05
2018-08-06T00:24:36.945Z,21.93
2018-08-06T00:25:17.368Z,21.94
2018-08-06T00:25:57.827Z,21.94
2018-08-06T00:26:38.227Z,21.96
2018-08-06T00:27:18.631Z,21.98
2018-08-06T00:27:59.047Z,21.91
2018-08-06T00:28:39.552Z,21.96
2018-08-06T00:29:19.867Z,21.89
2018-08-06T00:30:00.328Z,21.96
2018-08-06T00:31:52.741Z,21.93
2018-08-06T00:32:33.107Z,21.93
2018-08-06T00:33:13.548Z,21.96
2018-08-06T00:33:53.948Z,21.94
2018-08-06T00:34:34.347Z,21.98
2018-08-06T00:36:26.731Z,22.01
2018-08-06T00:37:07.122Z,21.99
2018-08-06T00:37:47.605Z,21.96
2018-08-06T00:38:28.080Z,21.94
2018-08-06T00:39:08.464Z,22.01
2018-08-06T00:39:48.989Z,21.98
2018-08-06T00:40:29.349Z,21.94
2018-08-06T00:41:09.729Z,21.94
2018-08-06T00:41:50.140Z,21.98
2018-08-06T00:42:30.555Z,21.99
2018-08-06T00:43:10.971Z,21.99
2018-08-06T00:43:51.353Z,21.94
2018-08-06T00:44:31.794Z,21.86
2018-08-06T00:45:12.183Z,21.96
2018-08-06T00:45:52.589Z,21.96
2018-08-06T00:46:32.959Z,21.9
2018-08-06T00:47:13.360Z,21.89
2018-08-06T00:47:53.750Z,21.83
2018-08-06T00:48:34.110Z,21.83
2018-08-06T00:49:14.538Z,21.74
2018-08-06T00:50:51.790Z,21.79
2018-08-06T00:51:32.138Z,21.67
2018-08-06T00:52:12.567Z,21.75
2018-08-06T00:54:10.023Z,21.7
2018-08-06T00:54:50.520Z,21.56
2018-08-06T00:55:30.913Z,21.66
2018-08-06T00:56:11.319Z,21.64
2018-08-06T00:56:51.707Z,21.64
2018-08-06T00:57:32.136Z,21.59
2018-08-06T00:59:29.586Z,21.64
2018-08-06T01:00:09.942Z,21.53
2018-08-06T01:00:50.368Z,21.55
2018-08-06T01:01:30.783Z,21.56
2018-08-06T01:02:11.200Z,21.53
2018-08-06T01:02:51.629Z,21.61
2018-08-06T01:03:32.013Z,21.53
2018-08-06T01:04:12.441Z,21.51
2018-08-06T01:04:52.819Z,21.46
2018-08-06T01:05:33.214Z,21.45
2018-08-06T01:06:13.635Z,21.45
2018-08-06T01:06:54.047Z,21.38
2018-08-06T01:07:34.442Z,21.36
2018-08-06T01:08:14.879Z,21.36
2018-08-06T01:08:55.296Z,21.37
2018-08-06T01:09:35.686Z,21.34
2018-08-06T01:10:16.056Z,21.34
2018-08-06T01:10:56.466Z,21.28
2018-08-06T01:11:36.868Z,21.21
2018-08-06T01:12:17.257Z,21.22
2018-08-06T01:12:57.673Z,21.22
2018-08-06T01:13:38.096Z,21.16
2018-08-06T01:14:18.464Z,21.15
2018-08-06T01:14:58.860Z,21.13
2018-08-06T01:15:39.285Z,21.15
2018-08-06T01:16:19.697Z,21.16
2018-08-06T01:17:00.094Z,21.19
2018-08-06T01:18:37.282Z,21.03
2018-08-06T01:19:17.669Z,20.97
2018-08-06T01:19:58.094Z,21.01
2018-08-06T01:20:38.524Z,20.94
2018-08-06T01:22:30.860Z,20.85
2018-08-06T01:23:11.304Z,20.79
2018-08-06T01:25:23.937Z,20.66
2018-08-06T01:26:04.328Z,20.72
2018-08-06T01:26:44.593Z,20.64
2018-08-06T01:27:25.025Z,20.69
2018-08-06T01:28:05.437Z,20.46
2018-08-06T01:28:45.861Z,20.5
2018-08-06T01:29:26.256Z,20.5
2018-08-06T01:30:06.673Z,20.41
2018-08-06T01:30:47.022Z,20.46
2018-08-06T01:31:27.423Z,20.42
2018-08-06T01:32:07.927Z,20.3
2018-08-06T01:32:48.245Z,20.27
2018-08-06T01:33:28.649Z,20.33
2018-08-06T01:34:09.021Z,20.33
2018-08-06T01:34:49.482Z,20.22
2018-08-06T01:35:29.887Z,20.26
2018-08-06T01:36:10.283Z,20.17
2018-08-06T01:36:50.711Z,20.19
2018-08-06T01:37:31.113Z,20.19
2018-08-06T01:38:11.505Z,20.12
2018-08-06T01:38:51.910Z,20.12
2018-08-06T01:39:32.335Z,20.08
2018-08-06T01:40:12.723Z,20.08
2018-08-06T01:40:53.114Z,20.01
2018-08-06T01:41:33.518Z,20.07
2018-08-06T01:42:13.968Z,20.08
2018-08-06T01:42:54.309Z,19.97
2018-08-06T01:43:34.697Z,19.92
2018-08-06T01:44:15.116Z,20
2018-08-06T01:44:55.536Z,19.94
2018-08-06T01:45:35.958Z,19.79
2018-08-06T01:46:16.354Z,19.76
2018-08-06T01:46:56.796Z,19.87
2018-08-06T01:47:37.202Z,19.8
2018-08-06T01:48:17.550Z,19.76
2018-08-06T01:48:57.955Z,19.71
2018-08-06T01:49:38.392Z,19.7
2018-08-06T01:50:18.793Z,19.7
2018-08-06T01:50:59.273Z,19.72
2018-08-06T01:51:39.634Z,19.75
2018-08-06T01:53:52.116Z,19.68
2018-08-06T01:54:32.539Z,19.58
2018-08-06T01:55:12.941Z,19.53
2018-08-06T01:55:53.377Z,19.61
2018-08-06T01:56:33.760Z,19.6
2018-08-06T01:57:14.179Z,19.64
2018-08-06T01:57:54.633Z,19.45
2018-08-06T01:59:41.924Z,19.49
2018-08-06T02:00:22.443Z,19.42
2018-08-06T02:01:04.043Z,19.42
2018-08-06T02:01:44.440Z,19.4
2018-08-06T02:02:24.946Z,19.27
2018-08-06T02:03:05.318Z,19.35
2018-08-06T02:03:45.739Z,19.32
2018-08-06T02:04:26.143Z,19.31
2018-08-06T02:05:06.519Z,19.28
2018-08-06T02:05:46.908Z,19.25
2018-08-06T02:06:27.417Z,19.23
2018-08-06T02:07:07.696Z,19.17
2018-08-06T02:07:48.088Z,19.2
2018-08-06T02:08:28.509Z,19.21
2018-08-06T02:10:20.852Z,19.17
2018-08-06T02:11:01.403Z,19.12
2018-08-06T02:11:41.787Z,19.09
2018-08-06T02:12:22.140Z,19.1
2018-08-06T02:13:02.544Z,19.09
2018-08-06T02:13:42.904Z,19.17
2018-08-06T02:14:23.334Z,19.24
2018-08-06T02:15:03.760Z,19.17
2018-08-06T02:16:56.163Z,19.15
2018-08-06T02:17:36.549Z,19.23
2018-08-06T02:18:16.914Z,19.24
2018-08-06T02:18:57.314Z,19.21
2018-08-06T02:19:37.760Z,19.17
2018-08-06T02:20:18.167Z,19.13
2018-08-06T02:20:58.552Z,19.17
2018-08-06T02:21:38.980Z,19.17
2018-08-06T02:22:19.402Z,19.17
2018-08-06T02:22:59.797Z,19.2
2018-08-06T02:24:37.171Z,19.1
2018-08-06T02:25:17.445Z,19.1
2018-08-06T02:25:57.798Z,19.09
2018-08-06T02:26:38.213Z,19.07
2018-08-06T02:27:18.598Z,19.12
2018-08-06T02:27:59.012Z,19.1
2018-08-06T02:28:39.478Z,19.02
2018-08-06T02:29:19.838Z,19.02
2018-08-06T02:30:00.220Z,19.13
2018-08-06T02:30:40.644Z,19.16
2018-08-06T02:31:21.018Z,19.1
2018-08-06T02:32:01.437Z,19.17
2018-08-06T02:32:41.821Z,19.17
2018-08-06T02:33:22.210Z,19.13
2018-08-06T02:34:02.664Z,19.24
2018-08-06T02:34:43.044Z,19.17
2018-08-06T02:35:23.539Z,19.21
2018-08-06T02:36:03.878Z,19.17
2018-08-06T02:36:44.281Z,19.15
2018-08-06T02:37:24.701Z,19.12
2018-08-06T02:38:05.085Z,19.02
2018-08-06T02:38:45.492Z,19.06
2018-08-06T02:39:25.894Z,19.05
2018-08-06T02:40:06.313Z,19.01
2018-08-06T02:40:46.735Z,18.94
2018-08-06T02:41:27.097Z,18.91
2018-08-06T02:42:07.518Z,18.91
2018-08-06T02:42:47.945Z,18.86
2018-08-06T02:43:28.332Z,18.83
2018-08-06T02:44:08.749Z,18.82
2018-08-06T02:44:49.163Z,18.72
2018-08-06T02:45:29.576Z,18.72
2018-08-06T02:46:09.982Z,18.6
2018-08-06T02:46:50.365Z,18.42
2018-08-06T02:47:30.801Z,18.54
2018-08-06T02:48:11.185Z,18.49
2018-08-06T02:48:51.610Z,18.57
2018-08-06T02:49:32.028Z,18.49
2018-08-06T02:51:10.220Z,18.6
2018-08-06T02:51:50.615Z,18.64
2018-08-06T02:52:31.006Z,18.65
2018-08-06T02:53:11.386Z,18.62
2018-08-06T02:53:51.835Z,18.57
2018-08-06T02:54:32.234Z,18.6
2018-08-06T02:56:19.701Z,18.66
2018-08-06T02:57:00.030Z,18.62
2018-08-06T02:57:40.435Z,18.65
2018-08-06T02:59:52.937Z,18.62
2018-08-06T03:00:33.312Z,18.54
2018-08-06T03:01:13.717Z,18.6
2018-08-06T03:01:54.110Z,18.57
2018-08-06T03:02:34.466Z,18.57
2018-08-06T03:03:14.876Z,18.5
2018-08-06T03:03:55.251Z,18.57
2018-08-06T03:06:07.771Z,18.47
2018-08-06T03:06:48.142Z,18.44
2018-08-06T03:07:28.577Z,18.42
2018-08-06T03:08:08.967Z,18.44
2018-08-06T03:08:49.371Z,18.46
2018-08-06T03:09:29.773Z,18.41
2018-08-06T03:10:10.233Z,18.46
2018-08-06T03:10:50.559Z,18.44
2018-08-06T03:11:30.985Z,18.44
2018-08-06T03:12:11.367Z,18.44
2018-08-06T03:12:51.783Z,18.42
2018-08-06T03:13:32.192Z,18.53
2018-08-06T03:14:12.592Z,18.39
2018-08-06T03:14:53.030Z,18.46
2018-08-06T03:15:33.436Z,18.47
2018-08-06T03:16:13.854Z,18.47
2018-08-06T03:16:54.396Z,18.38
2018-08-06T03:17:34.678Z,18.42
2018-08-06T03:18:15.139Z,18.38
2018-08-06T03:18:55.475Z,18.38
2018-08-06T03:20:32.894Z,18.34
2018-08-06T03:21:13.154Z,18.36
2018-08-06T03:21:53.608Z,18.32
2018-08-06T03:22:33.964Z,18.35
2018-08-06T03:23:14.419Z,18.28
2018-08-06T03:23:54.811Z,18.28
2018-08-06T03:24:35.241Z,18.38
2018-08-06T03:25:15.684Z,18.28
2018-08-06T03:25:56.121Z,18.36
2018-08-06T03:26:36.520Z,18.38
2018-08-06T03:27:16.937Z,18.38
2018-08-06T03:27:57.309Z,18.47
2018-08-06T03:28:37.693Z,18.47
2018-08-06T03:29:18.147Z,18.36
2018-08-06T03:29:58.587Z,18.38
2018-08-06T03:30:38.912Z,18.39
2018-08-06T03:31:19.426Z,18.36
2018-08-06T03:31:59.725Z,18.39
2018-08-06T03:32:40.115Z,18.36
2018-08-06T03:33:20.558Z,18.34
2018-08-06T03:34:00.969Z,18.38
2018-08-06T03:34:41.407Z,18.35
2018-08-06T03:35:21.829Z,18.34
2018-08-06T03:36:02.314Z,18.31
2018-08-06T03:36:42.700Z,18.35
2018-08-06T03:37:23.231Z,18.34
2018-08-06T03:38:03.524Z,18.26
2018-08-06T03:38:43.954Z,18.34
2018-08-06T03:39:24.318Z,18.29
2018-08-06T03:40:04.781Z,18.25
2018-08-06T03:40:45.155Z,18.26
2018-08-06T03:41:25.563Z,18.32
2018-08-06T03:42:05.944Z,18.32
2018-08-06T03:42:46.458Z,18.19
2018-08-06T03:43:26.805Z,18.19
2018-08-06T03:45:14.353Z,18.25
2018-08-06T03:45:54.959Z,18.26
2018-08-06T03:46:35.355Z,18.16
2018-08-06T03:47:15.791Z,18.16
2018-08-06T03:47:56.224Z,18.26
2018-08-06T03:48:36.579Z,18.31
2018-08-06T03:49:17.022Z,18.29
2018-08-06T03:49:57.473Z,18.34
2018-08-06T03:50:37.794Z,18.26
2018-08-06T03:51:18.194Z,18.21
2018-08-06T03:52:56.646Z,18.28
2018-08-06T03:53:37.100Z,18.31
2018-08-06T03:54:17.372Z,18.29
2018-08-06T03:54:57.803Z,18.36
2018-08-06T03:55:38.328Z,18.35
2018-08-06T03:56:18.655Z,18.34
2018-08-06T03:56:59.074Z,18.35
2018-08-06T03:57:39.459Z,18.29
2018-08-06T03:59:36.911Z,18.35
2018-08-06T04:00:17.338Z,18.34
2018-08-06T04:00:57.779Z,18.41
2018-08-06T04:01:38.188Z,18.36
2018-08-06T04:02:18.596Z,18.35
2018-08-06T04:04:31.105Z,18.29
2018-08-06T04:05:11.469Z,18.34
2018-08-06T04:05:51.878Z,18.36
2018-08-06T04:06:32.348Z,18.35
2018-08-06T04:07:12.776Z,18.31
2018-08-06T04:09:01.182Z,18.26
2018-08-06T04:09:41.614Z,18.29
2018-08-06T04:10:22.038Z,18.29
2018-08-06T04:11:02.462Z,18.21
2018-08-06T04:11:42.886Z,18.35
2018-08-06T04:12:23.303Z,18.31
2018-08-06T04:13:03.708Z,18.26
2018-08-06T04:14:56.081Z,18.32
2018-08-06T04:15:36.511Z,18.29
2018-08-06T04:16:16.886Z,18.32
2018-08-06T04:16:57.305Z,18.34
2018-08-06T04:17:37.675Z,18.42
2018-08-06T04:19:14.831Z,18.38
2018-08-06T04:19:55.238Z,18.46
2018-08-06T04:20:35.655Z,18.34
2018-08-06T04:21:16.071Z,18.36
2018-08-06T04:21:56.533Z,18.39
2018-08-06T04:22:36.908Z,18.5
2018-08-06T04:23:17.380Z,18.39
2018-08-06T04:23:57.801Z,18.44
2018-08-06T04:24:38.204Z,18.41
2018-08-06T04:25:18.661Z,18.38
2018-08-06T04:25:59.138Z,18.44
2018-08-06T04:26:39.504Z,18.39
2018-08-06T04:27:19.956Z,18.42
2018-08-06T05:07:49.982Z,22.45
2018-08-06T05:08:30.894Z,22.56
2018-08-06T05:09:11.296Z,22.59
2018-08-06T05:09:51.655Z,22.7
2018-08-06T05:10:32.916Z,22.78
2018-08-06T05:11:13.303Z,22.94
2018-08-06T05:11:53.723Z,22.94
2018-08-06T05:12:34.113Z,22.82
2018-08-06T05:13:14.484Z,22.59
2018-08-06T05:13:54.891Z,22.46
2018-08-06T05:14:35.294Z,22.54
2018-08-06T05:15:15.731Z,22.67
2018-08-06T05:15:56.142Z,22.82
2018-08-06T05:16:36.524Z,22.97
2018-08-06T05:17:16.961Z,23
2018-08-06T05:17:57.361Z,23.21
2018-08-06T05:19:34.894Z,23.31
2018-08-06T05:20:16.160Z,23.12
2018-08-06T05:20:56.486Z,22.91
2018-08-06T05:21:36.871Z,22.94
2018-08-06T05:22:17.327Z,22.74
2018-08-06T05:22:57.771Z,22.57
2018-08-06T05:23:38.225Z,22.44
2018-08-06T05:24:18.719Z,22.36
2018-08-06T05:24:59.165Z,22.23
2018-08-06T05:25:39.604Z,22.11
2018-08-06T05:26:20.848Z,21.96
2018-08-06T05:27:01.338Z,21.98
2018-08-06T05:27:41.752Z,21.83
2018-08-06T05:28:22.489Z,21.82
2018-08-06T05:29:02.909Z,21.7
2018-08-06T05:29:43.488Z,21.67
2018-08-06T05:30:23.689Z,21.58
2018-08-06T05:31:04.136Z,21.61
2018-08-06T05:31:44.497Z,21.77
2018-08-06T05:32:25.337Z,21.66
2018-08-06T05:33:05.748Z,21.7
2018-08-06T05:33:46.162Z,21.79
2018-08-06T05:34:26.784Z,21.83
2018-08-06T05:35:07.962Z,21.83
2018-08-06T05:35:48.461Z,21.94
2018-08-06T05:36:28.947Z,21.98
2018-08-06T05:37:09.364Z,21.98
2018-08-06T05:37:49.910Z,21.99
2018-08-06T05:38:30.300Z,21.83
2018-08-06T05:41:31.684Z,21.79
2018-08-06T05:42:11.956Z,21.73
2018-08-06T05:42:52.374Z,21.98
2018-08-06T05:43:32.759Z,22.06
2018-08-06T05:44:13.235Z,22.33
2018-08-06T05:45:50.406Z,23.01
2018-08-06T05:46:30.829Z,23.31
2018-08-06T05:47:11.240Z,23.67
2018-08-06T05:47:51.660Z,23.82
2018-08-06T05:48:32.074Z,24.02
2018-08-06T05:49:12.496Z,24.18
2018-08-06T05:49:52.964Z,24.19
2018-08-06T05:50:33.405Z,24.29
2018-08-06T05:51:13.826Z,24.51
2018-08-06T05:51:54.283Z,24.6
2018-08-06T05:52:35.547Z,24.82
2018-08-06T05:53:15.963Z,25.01
2018-08-06T05:53:56.354Z,25.07
2018-08-06T05:54:36.751Z,25.29
2018-08-06T05:55:17.188Z,25.27
2018-08-06T05:55:57.684Z,25.38
2018-08-06T05:56:38.069Z,25.45
2018-08-06T05:57:18.506Z,25.66
2018-08-06T05:57:59.302Z,25.86
2018-08-06T05:58:39.702Z,25.97
2018-08-06T05:59:20.520Z,26.04
2018-08-06T06:00:01.624Z,26.08
2018-08-06T06:00:42.473Z,26.16
2018-08-06T06:01:22.990Z,26.24
2018-08-06T06:02:03.552Z,26.21
2018-08-06T06:02:44.413Z,26.21
2018-08-06T06:03:26.090Z,26.16
2018-08-06T06:04:07.291Z,26.31
2018-08-06T06:04:47.508Z,26.31
2018-08-06T06:05:30.344Z,26.47
2018-08-06T06:06:09.734Z,26.49
2018-08-06T06:06:51.348Z,26.57
2018-08-06T06:07:32.323Z,26.57
2018-08-06T06:08:13.357Z,26.66
2018-08-06T06:08:55.765Z,26.61
2018-08-06T06:09:36.957Z,26.79
2018-08-06T06:10:17.832Z,26.87
2018-08-06T06:10:58.188Z,27.09
2018-08-06T06:11:39.287Z,27.16
2018-08-06T06:12:19.823Z,27.2
2018-08-06T06:13:00.551Z,27.33
2018-08-06T06:13:41.630Z,27.2
2018-08-06T06:14:22.708Z,27.52
2018-08-06T06:15:04.510Z,27.59
2018-08-06T06:15:44.244Z,27.69
2018-08-06T06:16:25.098Z,27.8
2018-08-06T06:17:06.025Z,27.81
2018-08-06T06:17:46.820Z,27.83
2018-08-06T06:18:27.601Z,27.95
2018-08-06T06:19:08.837Z,28.08
2018-08-06T06:19:49.386Z,28.21
2018-08-06T06:20:30.810Z,28.27
2018-08-06T06:21:11.152Z,28.32
2018-08-06T06:21:51.697Z,28.28
2018-08-06T06:22:33.979Z,28.24
2018-08-06T06:23:14.670Z,28.14
2018-08-06T06:23:55.172Z,28.21
2018-08-06T06:24:35.791Z,28.14
2018-08-06T06:25:16.098Z,28.35
2018-08-06T06:25:56.854Z,28.4
2018-08-06T06:26:43.952Z,28.42
2018-08-06T06:27:24.828Z,28.52
2018-08-06T06:28:06.276Z,28.69
2018-08-06T06:28:47.881Z,28.77
2018-08-06T06:29:29.377Z,28.8
2018-08-06T06:30:10.324Z,28.79
2018-08-06T06:30:50.746Z,28.89
2018-08-06T06:31:31.980Z,28.92
2018-08-06T06:32:13.812Z,28.83
2018-08-06T06:32:57.311Z,28.79
2018-08-06T06:33:37.346Z,28.92
2018-08-06T06:34:18.345Z,29.03
2018-08-06T06:34:58.999Z,29.08
2018-08-06T06:35:40.202Z,29.2
2018-08-06T06:36:21.813Z,29.27
2018-08-06T06:37:01.883Z,29.42
2018-08-06T06:37:43.340Z,29.36
2018-08-06T06:38:24.108Z,29.44
2018-08-06T06:39:04.601Z,29.39
2018-08-06T06:39:45.044Z,29.49
2018-08-06T06:40:25.448Z,29.58
2018-08-06T06:41:06.985Z,29.57
2018-08-06T06:41:48.153Z,29.64
2018-08-06T06:42:28.953Z,29.64
2018-08-06T06:43:09.471Z,29.45
2018-08-06T06:43:50.077Z,29.32
2018-08-06T06:44:30.626Z,29.32
2018-08-06T06:45:11.557Z,29.27
2018-08-06T06:45:52.081Z,29.39
2018-08-06T06:46:32.516Z,29.41
2018-08-06T06:47:13.302Z,29.57
2018-08-06T06:47:54.188Z,29.57
2018-08-06T06:48:34.700Z,29.63
2018-08-06T06:49:16.947Z,29.69
2018-08-06T06:49:56.802Z,29.52
2018-08-06T06:50:37.806Z,29.36
2018-08-06T06:51:18.697Z,29.29
2018-08-06T06:52:00.045Z,29.12
2018-08-06T06:52:41.524Z,29
2018-08-06T06:53:23.787Z,28.88
2018-08-06T06:55:22.233Z,28.95
2018-08-06T06:57:24.992Z,28.92
2018-08-06T06:58:31.968Z,28.88
2018-08-06T06:59:25.943Z,28.91
2018-08-06T07:00:29.816Z,28.74
2018-08-06T07:01:25.519Z,28.73
2018-08-06T07:02:21.431Z,28.74
2018-08-06T07:03:20.261Z,28.69
2018-08-06T07:04:18.297Z,28.67
2018-08-06T07:05:19.995Z,28.72
2018-08-06T07:06:15.537Z,28.57
2018-08-06T07:07:09.232Z,28.55
2018-08-06T07:08:08.140Z,28.42
2018-08-06T07:09:10.308Z,28.38
2018-08-06T07:10:16.978Z,28.51
2018-08-06T07:17:21.911Z,29.05
2018-08-06T07:18:16.440Z,29.12
2018-08-06T07:19:09.540Z,29.21
2018-08-06T07:20:04.259Z,29.21
2018-08-06T07:20:59.700Z,29.32
2018-08-06T07:21:54.022Z,29.29
2018-08-06T07:22:46.137Z,29.23
2018-08-06T07:23:41.054Z,29.17
2018-08-06T07:24:34.098Z,28.97
2018-08-06T07:25:29.701Z,29
2018-08-06T07:26:27.188Z,28.89
2018-08-06T07:27:21.508Z,28.83
2018-08-06T07:28:20.423Z,28.73
2018-08-06T07:29:14.897Z,28.72
2018-08-06T07:30:08.119Z,28.76
2018-08-06T07:31:00.240Z,28.91
2018-08-06T07:31:55.757Z,29.02
2018-08-06T07:32:48.110Z,29.23
2018-08-06T07:33:42.820Z,29.21
2018-08-06T07:34:36.028Z,29.15
2018-08-06T07:35:24.517Z,29.17
2018-08-06T07:36:05.174Z,29.29
2018-08-06T07:49:23.378Z,28.8
2018-08-06T07:50:18.517Z,28.61
2018-08-06T07:50:59.296Z,28.58
2018-08-06T07:51:41.350Z,28.48
2018-08-06T07:52:23.183Z,28.52
2018-08-06T07:53:04.570Z,28.45
2018-08-06T07:53:45.095Z,28.43
2018-08-06T07:54:25.880Z,28.48
2018-08-06T07:55:07.706Z,28.74
2018-08-06T07:55:47.164Z,28.73
2018-08-06T07:56:28.307Z,28.72
2018-08-06T07:57:08.832Z,28.95
2018-08-06T07:57:49.228Z,28.88
2018-08-06T07:58:29.984Z,28.89
2018-08-06T07:59:11.718Z,28.89
2018-08-06T07:59:53.441Z,28.92
2018-08-06T08:00:33.323Z,28.85
2018-08-06T08:01:14.571Z,28.91
2018-08-06T08:01:55.095Z,28.95
2018-08-06T08:02:35.947Z,29.15
2018-08-06T08:03:16.961Z,29.42
2018-08-06T08:03:58.037Z,29.51
2018-08-06T08:04:38.656Z,29.55
2018-08-06T08:05:19.509Z,29.62
2018-08-06T08:06:00.065Z,29.58
2018-08-06T08:06:41.442Z,29.66
2018-08-06T08:07:21.397Z,29.57
2018-08-06T08:08:02.852Z,29.45
2018-08-06T08:08:45.420Z,29.47
2018-08-06T08:09:25.941Z,29.63
2018-08-06T08:10:06.556Z,29.7
2018-08-06T08:10:47.288Z,29.89
2018-08-06T08:11:27.856Z,29.91
2018-08-06T08:12:08.551Z,29.63
2018-08-06T08:12:49.730Z,29.67
2018-08-06T08:13:32.936Z,29.74
2018-08-06T08:14:13.175Z,29.82
2018-08-06T08:14:55.464Z,29.94
2018-08-06T08:15:36.461Z,30.04
2018-08-06T08:16:16.558Z,30.16
2018-08-06T08:16:57.097Z,30.19
2018-08-06T08:17:37.902Z,29.95
2018-08-06T08:18:18.502Z,29.91
2018-08-06T08:19:00.950Z,29.94
2018-08-06T08:19:41.286Z,29.79
2018-08-06T08:20:23.355Z,29.69
2018-08-06T08:21:03.720Z,29.64
2018-08-06T08:21:44.276Z,29.69
2018-08-06T08:22:25.199Z,29.78
2018-08-06T08:23:06.020Z,29.91
2018-08-06T08:23:46.448Z,29.81
2018-08-06T08:24:27.399Z,29.79
2018-08-06T08:25:08.957Z,29.71
2018-08-06T08:25:48.933Z,29.79
2018-08-06T08:26:30.457Z,29.86
2018-08-06T08:27:10.502Z,29.91
2018-08-06T08:27:52.597Z,29.85
2018-08-06T08:28:33.713Z,29.78
2018-08-06T08:29:14.140Z,29.67
2018-08-06T08:29:54.773Z,29.81
2018-08-06T08:30:36.656Z,29.81
2018-08-06T08:31:17.117Z,29.91
2018-08-06T08:31:57.490Z,29.91
2018-08-06T08:32:38.349Z,29.94
2018-08-06T08:33:19.357Z,30.06
2018-08-06T08:34:00.639Z,30.19
2018-08-06T08:34:40.581Z,30.25
2018-08-06T08:35:21.159Z,30.32
2018-08-06T08:36:02.721Z,30.28
2018-08-06T08:36:44.623Z,30.42
2018-08-06T08:37:25.941Z,30.6
2018-08-06T08:38:07.507Z,30.66
2018-08-06T08:38:52.976Z,30.79
2018-08-06T08:39:34.742Z,30.79
2018-08-06T08:40:17.670Z,30.96
2018-08-06T08:41:00.513Z,30.96
2018-08-06T08:41:42.656Z,30.97
2018-08-06T08:42:22.303Z,30.93
2018-08-06T08:43:04.024Z,30.81
2018-08-06T08:43:47.233Z,30.76
2018-08-06T08:44:29.477Z,30.78
2018-08-06T08:45:12.303Z,30.81
2018-08-06T08:45:53.005Z,30.79
2018-08-06T08:46:34.934Z,30.79
2018-08-06T08:47:16.381Z,30.78
2018-08-06T08:47:58.156Z,30.73
2018-08-06T08:48:40.184Z,30.61
2018-08-06T08:49:20.667Z,30.6
2018-08-06T08:50:01.663Z,30.85
2018-08-06T08:50:43.017Z,30.94
2018-08-06T08:51:24.974Z,31.03
2018-08-06T08:52:04.680Z,31.15
2018-08-06T08:52:45.408Z,31.12
2018-08-06T08:53:27.393Z,31.23
2018-08-06T08:54:10.147Z,31.23
2018-08-06T08:54:52.173Z,31.38
2018-08-06T08:55:34.136Z,31.49
2018-08-06T08:56:15.180Z,31.45
2018-08-06T08:56:56.192Z,31.62
2018-08-06T08:57:36.621Z,31.69
2018-08-06T08:58:18.181Z,31.74
2018-08-06T08:58:59.451Z,31.84
2018-08-06T08:59:39.874Z,32.03
2018-08-06T09:00:20.655Z,31.9
2018-08-06T09:01:02.141Z,31.88
2018-08-06T09:01:42.180Z,31.82
2018-08-06T09:02:23.013Z,31.87
2018-08-06T09:03:05.492Z,31.88
2018-08-06T09:03:45.738Z,31.92
2018-08-06T09:04:26.912Z,32.02
2018-08-06T09:05:08.490Z,32.12
2018-08-06T09:05:48.778Z,32.22
2018-08-06T09:06:30.492Z,32.29
2018-08-06T09:07:10.885Z,32.29
2018-08-06T09:07:52.498Z,32.32
2018-08-06T09:08:32.981Z,32.41
2018-08-06T09:09:15.888Z,32.51
2018-08-06T09:09:56.660Z,32.63
2018-08-06T09:10:37.321Z,32.59
2018-08-06T09:11:19.314Z,32.44
2018-08-06T09:12:01.785Z,32.25
2018-08-06T09:12:44.697Z,32.22
2018-08-06T09:14:44.704Z,32.51
2018-08-06T09:15:38.012Z,32.84
2018-08-06T09:16:31.689Z,33.02
2018-08-06T09:17:30.708Z,33.28
2018-08-06T09:18:27.733Z,33.33
2018-08-06T09:19:23.657Z,33.44
2018-08-06T09:20:19.055Z,33.43
2018-08-06T09:21:12.480Z,33.47
2018-08-06T09:22:55.318Z,33.6
2018-08-06T09:23:49.733Z,33.79
2018-08-06T09:24:53.357Z,33.84
2018-08-06T09:25:44.908Z,34.06
2018-08-06T09:26:42.268Z,34.08
2018-08-06T09:27:38.795Z,34.19
2018-08-06T09:28:45.324Z,34.18
2018-08-06T09:36:51.936Z,34.15
2018-08-06T09:37:46.396Z,34.09
2018-08-06T09:38:46.057Z,34.06
2018-08-06T09:42:58.507Z,34.87
2018-08-06T09:47:39.507Z,34.76
2018-08-06T09:48:21.558Z,34.83
2018-08-06T09:49:01.118Z,34.98
2018-08-06T09:49:41.603Z,35.2
2018-08-06T09:50:24.778Z,35.36
2018-08-06T09:51:05.756Z,35.31
2018-08-06T09:51:46.157Z,35.28
2018-08-06T09:52:27.394Z,35.28
2018-08-06T09:53:07.895Z,35.5
2018-08-06T09:53:48.990Z,35.58
2018-08-06T09:54:29.971Z,35.61
2018-08-06T09:55:10.906Z,35.61
2018-08-06T09:55:55.047Z,35.71
2018-08-06T09:56:36.594Z,35.89
2018-08-06T09:57:18.747Z,36.08
2018-08-06T09:57:57.290Z,36.38
2018-08-06T09:58:37.877Z,36.53
2018-08-06T09:59:21.172Z,36.6
2018-08-06T10:00:02.745Z,36.53
2018-08-06T10:00:50.255Z,36.44
2018-08-06T10:01:31.754Z,36.6
2018-08-06T10:02:13.163Z,36.57
2018-08-06T10:02:52.767Z,36.74
2018-08-06T10:03:34.598Z,36.89
2018-08-06T10:04:16.690Z,36.89
2018-08-06T10:04:57.654Z,37.12
2018-08-06T10:05:39.139Z,37.21
2018-08-06T10:06:19.516Z,37.2
2018-08-06T10:07:01.164Z,37.35
2018-08-06T10:07:42.085Z,37.45
2018-08-06T10:08:23.149Z,37.63
2018-08-06T10:09:03.916Z,37.77
2018-08-06T10:09:44.782Z,37.97
2018-08-06T10:10:26.376Z,37.97
2018-08-06T10:11:09.397Z,38.06
2018-08-06T10:11:49.972Z,38.12
2018-08-06T10:12:34.246Z,38.07
2018-08-06T10:13:17.496Z,38.18
2018-08-06T10:13:59.172Z,38.25
2018-08-06T10:14:41.872Z,38.04
2018-08-06T10:15:25.589Z,38.09
2018-08-06T10:16:06.698Z,38.07
2018-08-06T10:16:58.364Z,38
2018-08-06T10:18:41.773Z,38.47
2018-08-06T10:20:48.691Z,39.09
2018-08-06T10:21:45.687Z,39.36
2018-08-06T10:23:56.548Z,40
2018-08-06T10:26:30.021Z,40.51
2018-08-06T10:27:53.606Z,40.86
2018-08-06T10:28:50.247Z,40.97
2018-08-06T11:08:42.292Z,38.25
2018-08-06T11:12:58.261Z,39.57
2018-08-06T11:14:05.063Z,39.72
2018-08-06T11:15:02.067Z,39.5
2018-08-06T11:15:42.564Z,39.2
2018-08-06T11:16:23.273Z,38.89
2018-08-06T11:17:04.644Z,38.62
2018-08-06T11:17:45.941Z,38.33
2018-08-06T11:19:00.705Z,38.21
2018-08-06T11:19:42.727Z,38.15
2018-08-06T11:20:23.350Z,38.06
2018-08-06T11:21:04.118Z,38.04
2018-08-06T11:21:44.440Z,38.1
2018-08-06T11:22:25.257Z,38.31
2018-08-06T11:23:06.180Z,38.45
2018-08-06T11:23:52.103Z,38.65
2018-08-06T11:24:33.239Z,38.58
2018-08-06T11:25:34.660Z,38.86
2018-08-06T11:26:17.594Z,39.01
2018-08-06T11:41:07.950Z,39.28
2018-08-06T11:43:26.846Z,38.37
2018-08-06T11:45:29.496Z,37.69
2018-08-06T11:47:33.026Z,37.84
2018-08-06T11:49:59.821Z,37.72
2018-08-06T11:50:58.135Z,38.19
2018-08-06T11:52:01.542Z,38.68
2018-08-06T11:55:57.048Z,39.01
2018-08-06T12:00:22.496Z,38.59
2018-08-06T12:02:53.383Z,38.03
2018-08-06T12:03:51.542Z,38.03
2018-08-06T12:05:03.162Z,37.84
2018-08-06T12:06:43.450Z,37.87
2018-08-06T12:08:34.121Z,38.06
2018-08-06T12:09:17.410Z,38.45
2018-08-06T12:09:57.260Z,38.72
2018-08-06T12:10:38.162Z,39.06
2018-08-06T12:11:21.463Z,39.25
2018-08-06T12:12:01.806Z,39.39
2018-08-06T12:12:46.888Z,39.61
2018-08-06T12:13:29.642Z,39.57
2018-08-06T12:15:08.228Z,39.75
2018-08-06T12:15:51.002Z,39.97
2018-08-06T12:16:31.458Z,40.13
2018-08-06T12:17:12.864Z,40.1
2018-08-06T12:17:59.865Z,39.78
2018-08-06T12:18:41.236Z,39.72
2018-08-06T12:19:21.417Z,39.68
2018-08-06T12:20:02.579Z,39.82
2018-08-06T12:20:44.117Z,39.84
2018-08-06T12:21:24.812Z,39.96